sensor_id;sensor_type;location;lat;lon;timestamp;temperature;humidity
21481;DHT22;10902;48.158;8.634;2024-01-07T00:02:43;2.50;99.90
21481;DHT22;10902;48.158;8.634;2024-01-07T00:05:29;2.40;99.90
21481;DHT22;10902;48.158;8.634;2024-01-07T00:08:14;2.50;99.90
21481;DHT22;10902;48.158;8.634;2024-01-07T00:11:00;2.40;99.90
21481;DHT22;10902;48.158;8.634;2024-01-07T00:13:46;2.40;99.90
21481;DHT22;10902;48.158;8.634;2024-01-07T00:16:31;2.40;99.90
21481;DHT22;10902;48.158;8.634;2024-01-07T00:19:17;2.40;99.90
21481;DHT22;10902;48.158;8.634;2024-01-07T00:22:03;2.30;99.90
21481;DHT22;10902;48.158;8.634;2024-01-07T00:24:48;2.40;99.90
21481;DHT22;10902;48.158;8.634;2024-01-07T00:27:34;2.40;99.90
21481;DHT22;10902;48.158;8.634;2024-01-07T00:30:20;2.40;99.90
21481;DHT22;10902;48.158;8.634;2024-01-07T00:33:05;2.40;99.90
21481;DHT22;10902;48.158;8.634;2024-01-07T00:35:51;2.40;99.90
21481;DHT22;10902;48.158;8.634;2024-01-07T00:38:36;2.30;99.90
21481;DHT22;10902;48.158;8.634;2024-01-07T00:41:22;2.30;99.90
21481;DHT22;10902;48.158;8.634;2024-01-07T00:44:08;2.30;99.90
21481;DHT22;10902;48.158;8.634;2024-01-07T00:46:53;2.30;99.90
21481;DHT22;10902;48.158;8.634;2024-01-07T00:49:39;2.30;99.90
21481;DHT22;10902;48.158;8.634;2024-01-07T00:52:25;2.20;99.90
21481;DHT22;10902;48.158;8.634;2024-01-07T00:55:11;2.10;99.90
21481;DHT22;10902;48.158;8.634;2024-01-07T00:57:57;2.20;99.90
21481;DHT22;10902;48.158;8.634;2024-01-07T01:00:42;2.20;99.90
21481;DHT22;10902;48.158;8.634;2024-01-07T01:03:28;2.20;99.90
21481;DHT22;10902;48.158;8.634;2024-01-07T01:06:13;2.20;99.90
21481;DHT22;10902;48.158;8.634;2024-01-07T01:08:59;2.10;99.90
21481;DHT22;10902;48.158;8.634;2024-01-07T01:11:45;2.00;99.90
21481;DHT22;10902;48.158;8.634;2024-01-07T01:14:30;2.00;99.90
21481;DHT22;10902;48.158;8.634;2024-01-07T01:17:16;2.00;99.90
21481;DHT22;10902;48.158;8.634;2024-01-07T01:20:01;2.10;99.90
21481;DHT22;10902;48.158;8.634;2024-01-07T01:22:47;2.20;99.90
21481;DHT22;10902;48.158;8.634;2024-01-07T01:25:33;2.30;99.90
21481;DHT22;10902;48.158;8.634;2024-01-07T01:28:18;2.40;99.90
21481;DHT22;10902;48.158;8.634;2024-01-07T01:31:04;2.30;99.90
21481;DHT22;10902;48.158;8.634;2024-01-07T01:33:50;2.20;99.90
21481;DHT22;10902;48.158;8.634;2024-01-07T01:36:36;2.10;99.90
21481;DHT22;10902;48.158;8.634;2024-01-07T01:39:22;2.10;99.90
21481;DHT22;10902;48.158;8.634;2024-01-07T01:42:08;2.00;99.90
21481;DHT22;10902;48.158;8.634;2024-01-07T01:44:53;2.00;99.90
21481;DHT22;10902;48.158;8.634;2024-01-07T01:47:42;2.00;99.90
21481;DHT22;10902;48.158;8.634;2024-01-07T01:50:29;2.00;99.90
21481;DHT22;10902;48.158;8.634;2024-01-07T01:53:17;2.00;99.90
21481;DHT22;10902;48.158;8.634;2024-01-07T01:56:03;2.10;99.90
21481;DHT22;10902;48.158;8.634;2024-01-07T01:58:49;2.10;99.90
21481;DHT22;10902;48.158;8.634;2024-01-07T02:01:35;2.20;99.90
21481;DHT22;10902;48.158;8.634;2024-01-07T02:04:20;2.20;99.90
21481;DHT22;10902;48.158;8.634;2024-01-07T02:07:06;2.20;99.90
21481;DHT22;10902;48.158;8.634;2024-01-07T02:09:52;2.20;99.90
21481;DHT22;10902;48.158;8.634;2024-01-07T02:12:37;2.30;99.90
21481;DHT22;10902;48.158;8.634;2024-01-07T02:15:23;2.30;99.90
21481;DHT22;10902;48.158;8.634;2024-01-07T02:18:09;2.30;99.90
21481;DHT22;10902;48.158;8.634;2024-01-07T02:20:54;2.30;99.90
21481;DHT22;10902;48.158;8.634;2024-01-07T02:23:40;2.30;99.90
21481;DHT22;10902;48.158;8.634;2024-01-07T02:26:25;2.40;99.90
21481;DHT22;10902;48.158;8.634;2024-01-07T02:29:11;2.40;99.90
21481;DHT22;10902;48.158;8.634;2024-01-07T02:31:57;2.30;99.90
21481;DHT22;10902;48.158;8.634;2024-01-07T02:34:43;2.30;99.90
21481;DHT22;10902;48.158;8.634;2024-01-07T02:37:29;2.40;99.90
21481;DHT22;10902;48.158;8.634;2024-01-07T02:40:14;2.40;99.90
21481;DHT22;10902;48.158;8.634;2024-01-07T02:43:00;2.50;99.90
21481;DHT22;10902;48.158;8.634;2024-01-07T02:45:45;2.50;99.90
21481;DHT22;10902;48.158;8.634;2024-01-07T02:48:31;2.50;99.90
21481;DHT22;10902;48.158;8.634;2024-01-07T02:51:17;2.50;99.90
21481;DHT22;10902;48.158;8.634;2024-01-07T02:54:02;2.40;99.90
21481;DHT22;10902;48.158;8.634;2024-01-07T02:56:48;2.40;99.90
21481;DHT22;10902;48.158;8.634;2024-01-07T02:59:33;2.40;99.90
21481;DHT22;10902;48.158;8.634;2024-01-07T03:02:19;2.40;99.90
21481;DHT22;10902;48.158;8.634;2024-01-07T03:05:05;2.40;99.90
21481;DHT22;10902;48.158;8.634;2024-01-07T03:07:50;2.40;99.90
21481;DHT22;10902;48.158;8.634;2024-01-07T03:10:36;2.40;99.90
21481;DHT22;10902;48.158;8.634;2024-01-07T03:13:22;2.40;99.90
21481;DHT22;10902;48.158;8.634;2024-01-07T03:16:07;2.40;99.90
21481;DHT22;10902;48.158;8.634;2024-01-07T03:18:53;2.30;99.90
21481;DHT22;10902;48.158;8.634;2024-01-07T03:21:39;2.30;99.90
21481;DHT22;10902;48.158;8.634;2024-01-07T03:24:24;2.30;99.90
21481;DHT22;10902;48.158;8.634;2024-01-07T03:27:10;2.30;99.90
21481;DHT22;10902;48.158;8.634;2024-01-07T03:29:55;2.20;99.90
21481;DHT22;10902;48.158;8.634;2024-01-07T03:32:41;2.30;99.90
21481;DHT22;10902;48.158;8.634;2024-01-07T03:35:27;2.30;99.90
21481;DHT22;10902;48.158;8.634;2024-01-07T03:38:12;2.30;99.90
21481;DHT22;10902;48.158;8.634;2024-01-07T03:40:58;2.20;99.90
21481;DHT22;10902;48.158;8.634;2024-01-07T03:43:44;2.30;99.90
21481;DHT22;10902;48.158;8.634;2024-01-07T03:46:31;2.30;99.90
21481;DHT22;10902;48.158;8.634;2024-01-07T03:49:17;2.30;99.90
21481;DHT22;10902;48.158;8.634;2024-01-07T03:52:06;2.20;99.90
21481;DHT22;10902;48.158;8.634;2024-01-07T03:54:52;2.20;99.90
21481;DHT22;10902;48.158;8.634;2024-01-07T03:57:37;2.20;99.90
21481;DHT22;10902;48.158;8.634;2024-01-07T04:00:23;2.10;99.90
21481;DHT22;10902;48.158;8.634;2024-01-07T04:03:08;2.10;99.90
21481;DHT22;10902;48.158;8.634;2024-01-07T04:05:55;2.10;99.90
21481;DHT22;10902;48.158;8.634;2024-01-07T04:08:40;2.10;99.90
21481;DHT22;10902;48.158;8.634;2024-01-07T04:11:26;2.10;99.90
21481;DHT22;10902;48.158;8.634;2024-01-07T04:14:14;2.10;99.90
21481;DHT22;10902;48.158;8.634;2024-01-07T04:16:59;2.10;99.90
21481;DHT22;10902;48.158;8.634;2024-01-07T04:19:45;2.00;99.90
21481;DHT22;10902;48.158;8.634;2024-01-07T04:22:31;2.00;99.90
21481;DHT22;10902;48.158;8.634;2024-01-07T04:25:16;2.00;99.90
21481;DHT22;10902;48.158;8.634;2024-01-07T04:28:02;1.90;99.90
21481;DHT22;10902;48.158;8.634;2024-01-07T04:30:47;1.80;99.90
21481;DHT22;10902;48.158;8.634;2024-01-07T04:33:34;1.90;99.90
21481;DHT22;10902;48.158;8.634;2024-01-07T04:36:19;1.90;99.90
21481;DHT22;10902;48.158;8.634;2024-01-07T04:39:05;1.80;99.90
21481;DHT22;10902;48.158;8.634;2024-01-07T04:41:51;1.80;99.90
21481;DHT22;10902;48.158;8.634;2024-01-07T04:44:36;1.80;99.90
21481;DHT22;10902;48.158;8.634;2024-01-07T04:47:27;1.80;99.90
21481;DHT22;10902;48.158;8.634;2024-01-07T04:50:13;1.70;99.90
21481;DHT22;10902;48.158;8.634;2024-01-07T04:53:00;1.80;99.90
21481;DHT22;10902;48.158;8.634;2024-01-07T04:55:45;1.80;99.90
21481;DHT22;10902;48.158;8.634;2024-01-07T04:58:31;1.80;99.90
21481;DHT22;10902;48.158;8.634;2024-01-07T05:01:17;1.70;99.90
21481;DHT22;10902;48.158;8.634;2024-01-07T05:04:02;1.60;99.90
21481;DHT22;10902;48.158;8.634;2024-01-07T05:06:48;1.70;99.90
21481;DHT22;10902;48.158;8.634;2024-01-07T05:09:33;1.70;99.90
21481;DHT22;10902;48.158;8.634;2024-01-07T05:12:19;1.70;99.90
21481;DHT22;10902;48.158;8.634;2024-01-07T05:15:05;1.70;99.90
21481;DHT22;10902;48.158;8.634;2024-01-07T05:17:51;1.70;99.90
21481;DHT22;10902;48.158;8.634;2024-01-07T05:20:37;1.70;99.90
21481;DHT22;10902;48.158;8.634;2024-01-07T05:23:24;1.70;99.90
21481;DHT22;10902;48.158;8.634;2024-01-07T05:26:09;1.70;99.90
21481;DHT22;10902;48.158;8.634;2024-01-07T05:28:55;1.70;99.90
21481;DHT22;10902;48.158;8.634;2024-01-07T05:31:40;1.60;99.90
21481;DHT22;10902;48.158;8.634;2024-01-07T05:34:27;1.60;99.90
21481;DHT22;10902;48.158;8.634;2024-01-07T05:37:13;1.50;99.90
21481;DHT22;10902;48.158;8.634;2024-01-07T05:39:58;1.60;99.90
21481;DHT22;10902;48.158;8.634;2024-01-07T05:42:44;1.60;99.90
21481;DHT22;10902;48.158;8.634;2024-01-07T05:45:29;1.60;99.90
21481;DHT22;10902;48.158;8.634;2024-01-07T05:48:15;1.60;99.90
21481;DHT22;10902;48.158;8.634;2024-01-07T05:51:00;1.50;99.90
21481;DHT22;10902;48.158;8.634;2024-01-07T05:53:46;1.50;99.90
21481;DHT22;10902;48.158;8.634;2024-01-07T05:56:32;1.50;99.90
21481;DHT22;10902;48.158;8.634;2024-01-07T05:59:17;1.50;99.90
21481;DHT22;10902;48.158;8.634;2024-01-07T06:02:03;1.40;99.90
21481;DHT22;10902;48.158;8.634;2024-01-07T06:04:49;1.30;99.90
21481;DHT22;10902;48.158;8.634;2024-01-07T06:07:34;1.20;99.90
21481;DHT22;10902;48.158;8.634;2024-01-07T06:10:21;1.10;99.90
21481;DHT22;10902;48.158;8.634;2024-01-07T06:13:07;1.10;99.90
21481;DHT22;10902;48.158;8.634;2024-01-07T06:15:52;1.10;99.90
21481;DHT22;10902;48.158;8.634;2024-01-07T06:18:39;1.10;99.90
21481;DHT22;10902;48.158;8.634;2024-01-07T06:21:25;1.10;99.90
21481;DHT22;10902;48.158;8.634;2024-01-07T06:24:11;1.10;99.90
21481;DHT22;10902;48.158;8.634;2024-01-07T06:26:57;1.10;99.90
21481;DHT22;10902;48.158;8.634;2024-01-07T06:29:42;1.10;99.90
21481;DHT22;10902;48.158;8.634;2024-01-07T06:32:28;1.10;99.90
21481;DHT22;10902;48.158;8.634;2024-01-07T06:35:13;1.10;99.90
21481;DHT22;10902;48.158;8.634;2024-01-07T06:37:59;1.10;99.90
21481;DHT22;10902;48.158;8.634;2024-01-07T06:40:44;1.10;99.90
21481;DHT22;10902;48.158;8.634;2024-01-07T06:43:30;1.10;99.90
21481;DHT22;10902;48.158;8.634;2024-01-07T06:46:16;1.00;99.90
21481;DHT22;10902;48.158;8.634;2024-01-07T06:49:01;1.00;99.90
21481;DHT22;10902;48.158;8.634;2024-01-07T06:51:47;1.10;99.90
21481;DHT22;10902;48.158;8.634;2024-01-07T06:54:32;1.10;99.90
21481;DHT22;10902;48.158;8.634;2024-01-07T06:57:18;1.10;99.90
21481;DHT22;10902;48.158;8.634;2024-01-07T07:00:04;1.10;99.90
21481;DHT22;10902;48.158;8.634;2024-01-07T07:02:51;1.20;99.90
21481;DHT22;10902;48.158;8.634;2024-01-07T07:05:37;1.20;99.90
21481;DHT22;10902;48.158;8.634;2024-01-07T07:08:23;1.30;99.90
21481;DHT22;10902;48.158;8.634;2024-01-07T07:11:09;1.30;99.90
21481;DHT22;10902;48.158;8.634;2024-01-07T07:13:54;1.30;99.90
21481;DHT22;10902;48.158;8.634;2024-01-07T07:16:40;1.30;99.90
21481;DHT22;10902;48.158;8.634;2024-01-07T07:19:25;1.30;99.90
21481;DHT22;10902;48.158;8.634;2024-01-07T07:22:11;1.30;99.90
21481;DHT22;10902;48.158;8.634;2024-01-07T07:24:56;1.30;99.90
21481;DHT22;10902;48.158;8.634;2024-01-07T07:27:42;1.30;99.90
21481;DHT22;10902;48.158;8.634;2024-01-07T07:30:29;1.20;99.90
21481;DHT22;10902;48.158;8.634;2024-01-07T07:33:15;1.20;99.90
21481;DHT22;10902;48.158;8.634;2024-01-07T07:36:00;1.20;99.90
21481;DHT22;10902;48.158;8.634;2024-01-07T07:38:47;1.20;99.90
21481;DHT22;10902;48.158;8.634;2024-01-07T07:41:33;1.20;99.90
21481;DHT22;10902;48.158;8.634;2024-01-07T07:44:19;1.10;99.90
21481;DHT22;10902;48.158;8.634;2024-01-07T07:47:04;1.10;99.90
21481;DHT22;10902;48.158;8.634;2024-01-07T07:49:50;1.10;99.90
21481;DHT22;10902;48.158;8.634;2024-01-07T07:52:36;1.00;99.90
21481;DHT22;10902;48.158;8.634;2024-01-07T07:55:22;1.00;99.90
21481;DHT22;10902;48.158;8.634;2024-01-07T07:58:07;1.00;99.90
21481;DHT22;10902;48.158;8.634;2024-01-07T08:00:53;1.00;99.90
21481;DHT22;10902;48.158;8.634;2024-01-07T08:03:39;1.00;99.90
21481;DHT22;10902;48.158;8.634;2024-01-07T08:06:24;0.90;99.90
21481;DHT22;10902;48.158;8.634;2024-01-07T08:09:10;0.90;99.90
21481;DHT22;10902;48.158;8.634;2024-01-07T08:11:56;0.90;99.90
21481;DHT22;10902;48.158;8.634;2024-01-07T08:14:41;0.90;99.90
21481;DHT22;10902;48.158;8.634;2024-01-07T08:17:27;0.90;99.90
21481;DHT22;10902;48.158;8.634;2024-01-07T08:20:14;0.90;99.90
21481;DHT22;10902;48.158;8.634;2024-01-07T08:22:59;0.90;99.90
21481;DHT22;10902;48.158;8.634;2024-01-07T08:25:45;0.80;99.90
21481;DHT22;10902;48.158;8.634;2024-01-07T08:28:31;0.80;99.90
21481;DHT22;10902;48.158;8.634;2024-01-07T08:31:16;0.80;99.90
21481;DHT22;10902;48.158;8.634;2024-01-07T08:34:02;0.90;99.90
21481;DHT22;10902;48.158;8.634;2024-01-07T08:36:47;0.80;99.90
21481;DHT22;10902;48.158;8.634;2024-01-07T08:39:34;0.90;99.90
21481;DHT22;10902;48.158;8.634;2024-01-07T08:42:20;0.90;99.90
21481;DHT22;10902;48.158;8.634;2024-01-07T08:45:06;0.90;99.90
21481;DHT22;10902;48.158;8.634;2024-01-07T08:47:52;1.00;99.90
21481;DHT22;10902;48.158;8.634;2024-01-07T08:50:37;1.00;99.90
21481;DHT22;10902;48.158;8.634;2024-01-07T08:53:23;1.00;99.90
21481;DHT22;10902;48.158;8.634;2024-01-07T08:56:09;1.00;99.90
21481;DHT22;10902;48.158;8.634;2024-01-07T08:58:54;1.10;99.90
21481;DHT22;10902;48.158;8.634;2024-01-07T09:01:40;1.20;99.90
21481;DHT22;10902;48.158;8.634;2024-01-07T09:04:25;1.30;99.90
21481;DHT22;10902;48.158;8.634;2024-01-07T09:07:11;1.30;99.90
21481;DHT22;10902;48.158;8.634;2024-01-07T09:09:57;1.30;99.90
21481;DHT22;10902;48.158;8.634;2024-01-07T09:12:44;1.40;99.90
21481;DHT22;10902;48.158;8.634;2024-01-07T09:15:31;1.50;99.90
21481;DHT22;10902;48.158;8.634;2024-01-07T09:18:17;1.50;99.90
21481;DHT22;10902;48.158;8.634;2024-01-07T09:21:04;1.40;99.90
21481;DHT22;10902;48.158;8.634;2024-01-07T09:23:49;1.40;99.90
21481;DHT22;10902;48.158;8.634;2024-01-07T09:26:35;1.40;99.90
21481;DHT22;10902;48.158;8.634;2024-01-07T09:29:21;1.30;99.90
21481;DHT22;10902;48.158;8.634;2024-01-07T09:32:06;1.40;99.90
21481;DHT22;10902;48.158;8.634;2024-01-07T09:34:52;1.20;99.90
21481;DHT22;10902;48.158;8.634;2024-01-07T09:37:38;1.30;99.90
21481;DHT22;10902;48.158;8.634;2024-01-07T09:40:24;1.30;99.90
21481;DHT22;10902;48.158;8.634;2024-01-07T09:43:09;1.30;99.90
21481;DHT22;10902;48.158;8.634;2024-01-07T09:45:56;1.30;99.90
21481;DHT22;10902;48.158;8.634;2024-01-07T09:48:42;1.30;99.90
21481;DHT22;10902;48.158;8.634;2024-01-07T09:51:33;1.40;99.90
21481;DHT22;10902;48.158;8.634;2024-01-07T09:54:21;1.40;99.90
21481;DHT22;10902;48.158;8.634;2024-01-07T09:57:08;1.50;99.90
21481;DHT22;10902;48.158;8.634;2024-01-07T09:59:54;1.60;99.90
21481;DHT22;10902;48.158;8.634;2024-01-07T10:02:39;1.60;99.90
21481;DHT22;10902;48.158;8.634;2024-01-07T10:05:26;1.80;99.90
21481;DHT22;10902;48.158;8.634;2024-01-07T10:08:12;1.80;99.90
21481;DHT22;10902;48.158;8.634;2024-01-07T10:10:58;1.80;99.90
21481;DHT22;10902;48.158;8.634;2024-01-07T10:13:46;1.90;99.90
21481;DHT22;10902;48.158;8.634;2024-01-07T10:16:37;1.80;99.90
21481;DHT22;10902;48.158;8.634;2024-01-07T10:19:23;1.80;99.90
21481;DHT22;10902;48.158;8.634;2024-01-07T10:22:09;1.70;99.90
21481;DHT22;10902;48.158;8.634;2024-01-07T10:24:56;1.70;99.90
21481;DHT22;10902;48.158;8.634;2024-01-07T10:27:43;1.60;99.90
21481;DHT22;10902;48.158;8.634;2024-01-07T10:30:29;1.70;99.90
21481;DHT22;10902;48.158;8.634;2024-01-07T10:33:17;1.70;99.90
21481;DHT22;10902;48.158;8.634;2024-01-07T10:36:05;1.60;99.90
21481;DHT22;10902;48.158;8.634;2024-01-07T10:38:51;1.60;99.90
21481;DHT22;10902;48.158;8.634;2024-01-07T10:41:37;1.60;99.90
21481;DHT22;10902;48.158;8.634;2024-01-07T10:44:25;1.50;99.90
21481;DHT22;10902;48.158;8.634;2024-01-07T10:47:11;1.50;99.90
21481;DHT22;10902;48.158;8.634;2024-01-07T10:49:59;1.40;99.90
21481;DHT22;10902;48.158;8.634;2024-01-07T10:52:50;1.50;99.90
21481;DHT22;10902;48.158;8.634;2024-01-07T10:55:42;1.50;99.90
21481;DHT22;10902;48.158;8.634;2024-01-07T10:58:36;1.30;99.90
21481;DHT22;10902;48.158;8.634;2024-01-07T11:01:22;1.40;99.90
21481;DHT22;10902;48.158;8.634;2024-01-07T11:04:15;1.20;99.90
21481;DHT22;10902;48.158;8.634;2024-01-07T11:10:32;1.30;99.90
21481;DHT22;10902;48.158;8.634;2024-01-07T11:13:35;1.30;99.90
21481;DHT22;10902;48.158;8.634;2024-01-07T11:16:41;1.30;99.90
21481;DHT22;10902;48.158;8.634;2024-01-07T11:19:27;1.10;99.90
21481;DHT22;10902;48.158;8.634;2024-01-07T11:22:26;1.10;99.90
21481;DHT22;10902;48.158;8.634;2024-01-07T11:25:31;1.20;99.90
21481;DHT22;10902;48.158;8.634;2024-01-07T11:28:17;1.10;99.90
21481;DHT22;10902;48.158;8.634;2024-01-07T11:31:03;1.00;99.90
21481;DHT22;10902;48.158;8.634;2024-01-07T11:33:50;1.10;99.90
21481;DHT22;10902;48.158;8.634;2024-01-07T11:36:36;1.10;99.90
21481;DHT22;10902;48.158;8.634;2024-01-07T11:39:22;1.10;99.90
21481;DHT22;10902;48.158;8.634;2024-01-07T11:42:08;1.00;99.90
21481;DHT22;10902;48.158;8.634;2024-01-07T11:44:54;1.10;99.90
21481;DHT22;10902;48.158;8.634;2024-01-07T11:47:40;1.20;99.90
21481;DHT22;10902;48.158;8.634;2024-01-07T11:50:26;1.20;99.90
21481;DHT22;10902;48.158;8.634;2024-01-07T11:53:13;1.10;99.90
21481;DHT22;10902;48.158;8.634;2024-01-07T11:55:59;1.00;99.90
21481;DHT22;10902;48.158;8.634;2024-01-07T11:58:44;1.20;99.90
21481;DHT22;10902;48.158;8.634;2024-01-07T12:01:30;1.10;99.90
21481;DHT22;10902;48.158;8.634;2024-01-07T12:04:16;1.10;99.90
21481;DHT22;10902;48.158;8.634;2024-01-07T12:07:02;1.00;99.90
21481;DHT22;10902;48.158;8.634;2024-01-07T12:09:56;1.00;99.90
21481;DHT22;10902;48.158;8.634;2024-01-07T12:12:42;0.80;99.90
21481;DHT22;10902;48.158;8.634;2024-01-07T12:15:28;0.80;99.90
21481;DHT22;10902;48.158;8.634;2024-01-07T12:18:14;0.90;99.90
21481;DHT22;10902;48.158;8.634;2024-01-07T12:21:00;0.80;99.90
21481;DHT22;10902;48.158;8.634;2024-01-07T12:23:50;0.80;99.90
21481;DHT22;10902;48.158;8.634;2024-01-07T12:26:36;0.80;99.90
21481;DHT22;10902;48.158;8.634;2024-01-07T12:29:22;0.80;99.90
21481;DHT22;10902;48.158;8.634;2024-01-07T12:32:09;0.80;99.90
21481;DHT22;10902;48.158;8.634;2024-01-07T12:35:02;0.70;99.90
21481;DHT22;10902;48.158;8.634;2024-01-07T12:37:48;0.70;99.90
21481;DHT22;10902;48.158;8.634;2024-01-07T12:40:34;0.80;99.90
21481;DHT22;10902;48.158;8.634;2024-01-07T12:43:20;0.70;99.90
21481;DHT22;10902;48.158;8.634;2024-01-07T12:46:06;0.80;99.90
21481;DHT22;10902;48.158;8.634;2024-01-07T12:48:52;0.80;99.90
21481;DHT22;10902;48.158;8.634;2024-01-07T12:51:37;0.70;99.90
21481;DHT22;10902;48.158;8.634;2024-01-07T12:54:23;0.70;99.90
21481;DHT22;10902;48.158;8.634;2024-01-07T12:57:09;0.60;99.90
21481;DHT22;10902;48.158;8.634;2024-01-07T12:59:55;0.50;99.90
21481;DHT22;10902;48.158;8.634;2024-01-07T13:02:41;0.40;99.90
21481;DHT22;10902;48.158;8.634;2024-01-07T13:05:27;0.40;99.90
21481;DHT22;10902;48.158;8.634;2024-01-07T13:08:13;0.50;99.90
21481;DHT22;10902;48.158;8.634;2024-01-07T13:10:59;0.50;99.90
21481;DHT22;10902;48.158;8.634;2024-01-07T13:13:45;0.50;99.90
21481;DHT22;10902;48.158;8.634;2024-01-07T13:16:32;0.40;99.90
21481;DHT22;10902;48.158;8.634;2024-01-07T13:19:17;0.30;99.90
21481;DHT22;10902;48.158;8.634;2024-01-07T13:22:03;0.40;99.90
21481;DHT22;10902;48.158;8.634;2024-01-07T13:24:49;0.30;99.90
21481;DHT22;10902;48.158;8.634;2024-01-07T13:27:35;0.30;99.90
21481;DHT22;10902;48.158;8.634;2024-01-07T13:30:21;0.30;99.90
21481;DHT22;10902;48.158;8.634;2024-01-07T13:33:06;0.20;99.90
21481;DHT22;10902;48.158;8.634;2024-01-07T13:35:53;0.10;99.90
21481;DHT22;10902;48.158;8.634;2024-01-07T13:38:38;0.10;99.90
21481;DHT22;10902;48.158;8.634;2024-01-07T13:41:26;0.10;99.90
21481;DHT22;10902;48.158;8.634;2024-01-07T13:44:14;0.00;99.90
21481;DHT22;10902;48.158;8.634;2024-01-07T13:47:02;-0.10;99.90
21481;DHT22;10902;48.158;8.634;2024-01-07T13:49:48;0.10;99.90
21481;DHT22;10902;48.158;8.634;2024-01-07T13:52:34;0.20;99.90
21481;DHT22;10902;48.158;8.634;2024-01-07T13:55:19;0.30;99.90
21481;DHT22;10902;48.158;8.634;2024-01-07T13:58:05;0.20;99.90
21481;DHT22;10902;48.158;8.634;2024-01-07T14:00:51;0.10;99.90
21481;DHT22;10902;48.158;8.634;2024-01-07T14:03:37;0.10;99.90
21481;DHT22;10902;48.158;8.634;2024-01-07T14:06:23;0.00;99.90
21481;DHT22;10902;48.158;8.634;2024-01-07T14:09:09;0.00;99.90
21481;DHT22;10902;48.158;8.634;2024-01-07T14:11:54;-0.10;99.90
21481;DHT22;10902;48.158;8.634;2024-01-07T14:14:40;0.10;99.90
21481;DHT22;10902;48.158;8.634;2024-01-07T14:17:26;0.10;99.90
21481;DHT22;10902;48.158;8.634;2024-01-07T14:20:11;0.10;99.90
21481;DHT22;10902;48.158;8.634;2024-01-07T14:22:57;0.10;99.90
21481;DHT22;10902;48.158;8.634;2024-01-07T14:25:42;0.10;99.90
21481;DHT22;10902;48.158;8.634;2024-01-07T14:28:28;0.10;99.90
21481;DHT22;10902;48.158;8.634;2024-01-07T14:31:14;0.00;99.90
21481;DHT22;10902;48.158;8.634;2024-01-07T14:33:59;0.00;99.90
21481;DHT22;10902;48.158;8.634;2024-01-07T14:36:45;-0.10;99.90
21481;DHT22;10902;48.158;8.634;2024-01-07T14:39:30;-0.10;99.90
21481;DHT22;10902;48.158;8.634;2024-01-07T14:42:16;0.00;99.90
21481;DHT22;10902;48.158;8.634;2024-01-07T14:45:02;-0.10;99.90
21481;DHT22;10902;48.158;8.634;2024-01-07T14:47:49;0.00;99.90
21481;DHT22;10902;48.158;8.634;2024-01-07T14:50:35;-0.10;99.90
21481;DHT22;10902;48.158;8.634;2024-01-07T14:53:20;-0.10;99.90
21481;DHT22;10902;48.158;8.634;2024-01-07T14:56:06;-0.20;99.90
21481;DHT22;10902;48.158;8.634;2024-01-07T14:58:53;-0.10;99.90
21481;DHT22;10902;48.158;8.634;2024-01-07T15:01:38;-0.10;99.90
21481;DHT22;10902;48.158;8.634;2024-01-07T15:04:27;-0.20;99.90
21481;DHT22;10902;48.158;8.634;2024-01-07T15:07:13;-0.10;99.90
21481;DHT22;10902;48.158;8.634;2024-01-07T15:09:58;-0.20;99.90
21481;DHT22;10902;48.158;8.634;2024-01-07T15:12:45;-0.20;99.90
21481;DHT22;10902;48.158;8.634;2024-01-07T15:15:30;-0.20;99.90
21481;DHT22;10902;48.158;8.634;2024-01-07T15:18:16;-0.20;99.90
21481;DHT22;10902;48.158;8.634;2024-01-07T15:21:02;-0.10;99.90
21481;DHT22;10902;48.158;8.634;2024-01-07T15:23:48;-0.30;99.90
21481;DHT22;10902;48.158;8.634;2024-01-07T15:26:34;-0.40;99.90
21481;DHT22;10902;48.158;8.634;2024-01-07T15:29:21;-0.40;99.90
21481;DHT22;10902;48.158;8.634;2024-01-07T15:32:06;-0.30;99.90
21481;DHT22;10902;48.158;8.634;2024-01-07T15:34:52;-0.30;99.90
21481;DHT22;10902;48.158;8.634;2024-01-07T15:37:37;-0.40;99.90
21481;DHT22;10902;48.158;8.634;2024-01-07T15:40:23;-0.40;99.90
21481;DHT22;10902;48.158;8.634;2024-01-07T15:43:10;-0.40;99.90
21481;DHT22;10902;48.158;8.634;2024-01-07T15:45:58;-0.50;99.90
21481;DHT22;10902;48.158;8.634;2024-01-07T15:48:44;-0.60;99.90
21481;DHT22;10902;48.158;8.634;2024-01-07T15:51:29;-0.60;99.90
21481;DHT22;10902;48.158;8.634;2024-01-07T15:54:15;-0.60;99.90
21481;DHT22;10902;48.158;8.634;2024-01-07T15:57:00;-0.70;99.90
21481;DHT22;10902;48.158;8.634;2024-01-07T15:59:47;-0.80;99.90
21481;DHT22;10902;48.158;8.634;2024-01-07T16:02:33;-0.80;99.90
21481;DHT22;10902;48.158;8.634;2024-01-07T16:05:19;-0.70;99.90
21481;DHT22;10902;48.158;8.634;2024-01-07T16:08:05;-0.80;99.90
21481;DHT22;10902;48.158;8.634;2024-01-07T16:10:50;-0.70;99.90
21481;DHT22;10902;48.158;8.634;2024-01-07T16:13:36;-0.80;99.90
21481;DHT22;10902;48.158;8.634;2024-01-07T16:16:21;-0.80;99.90
21481;DHT22;10902;48.158;8.634;2024-01-07T16:19:10;-0.90;99.90
21481;DHT22;10902;48.158;8.634;2024-01-07T16:21:56;-0.90;99.90
21481;DHT22;10902;48.158;8.634;2024-01-07T16:24:43;-0.90;99.90
21481;DHT22;10902;48.158;8.634;2024-01-07T16:27:30;-1.00;99.90
21481;DHT22;10902;48.158;8.634;2024-01-07T16:30:15;-1.00;99.90
21481;DHT22;10902;48.158;8.634;2024-01-07T16:33:01;-0.90;99.90
21481;DHT22;10902;48.158;8.634;2024-01-07T16:35:46;-1.10;99.90
21481;DHT22;10902;48.158;8.634;2024-01-07T16:38:32;-1.10;99.90
21481;DHT22;10902;48.158;8.634;2024-01-07T16:41:20;-1.10;99.90
21481;DHT22;10902;48.158;8.634;2024-01-07T16:44:06;-1.10;99.90
21481;DHT22;10902;48.158;8.634;2024-01-07T16:46:54;-1.10;99.90
21481;DHT22;10902;48.158;8.634;2024-01-07T16:49:39;-1.00;99.90
21481;DHT22;10902;48.158;8.634;2024-01-07T16:52:25;-1.10;99.90
21481;DHT22;10902;48.158;8.634;2024-01-07T16:55:10;-1.20;99.90
21481;DHT22;10902;48.158;8.634;2024-01-07T16:57:56;-1.20;99.90
21481;DHT22;10902;48.158;8.634;2024-01-07T17:00:41;-1.10;99.90
21481;DHT22;10902;48.158;8.634;2024-01-07T17:03:28;-1.30;99.90
21481;DHT22;10902;48.158;8.634;2024-01-07T17:06:13;-1.20;99.90
21481;DHT22;10902;48.158;8.634;2024-01-07T17:08:59;-1.40;99.90
21481;DHT22;10902;48.158;8.634;2024-01-07T17:11:45;-1.30;99.90
21481;DHT22;10902;48.158;8.634;2024-01-07T17:14:31;-1.40;99.90
21481;DHT22;10902;48.158;8.634;2024-01-07T17:17:16;-1.40;99.90
21481;DHT22;10902;48.158;8.634;2024-01-07T17:20:02;-1.40;99.90
21481;DHT22;10902;48.158;8.634;2024-01-07T17:22:48;-1.50;99.90
21481;DHT22;10902;48.158;8.634;2024-01-07T17:25:33;-1.60;99.90
21481;DHT22;10902;48.158;8.634;2024-01-07T17:28:19;-1.60;99.90
21481;DHT22;10902;48.158;8.634;2024-01-07T17:31:05;-1.50;99.90
21481;DHT22;10902;48.158;8.634;2024-01-07T17:33:50;-1.70;99.90
21481;DHT22;10902;48.158;8.634;2024-01-07T17:36:36;-1.50;99.90
21481;DHT22;10902;48.158;8.634;2024-01-07T17:39:22;-1.50;99.90
21481;DHT22;10902;48.158;8.634;2024-01-07T17:42:08;-1.50;99.90
21481;DHT22;10902;48.158;8.634;2024-01-07T17:44:54;-1.50;99.90
21481;DHT22;10902;48.158;8.634;2024-01-07T17:47:40;-1.70;99.90